sensor_id;sensor_type;location;lat;lon;timestamp;P1;durP1;ratioP1;P2;durP2;ratioP2
7899;SDS011;3995;50.856;4.404;2024-02-14T00:00:11;4.73;;;2.53;;
7899;SDS011;3995;50.856;4.404;2024-02-14T00:02:39;4.57;;;2.60;;
7899;SDS011;3995;50.856;4.404;2024-02-14T00:05:07;4.87;;;2.43;;
7899;SDS011;3995;50.856;4.404;2024-02-14T00:07:35;3.10;;;2.40;;
7899;SDS011;3995;50.856;4.404;2024-02-14T00:10:03;4.43;;;2.37;;
7899;SDS011;3995;50.856;4.404;2024-02-14T00:12:32;4.43;;;2.67;;
7899;SDS011;3995;50.856;4.404;2024-02-14T00:15:00;2.90;;;2.40;;
7899;SDS011;3995;50.856;4.404;2024-02-14T00:17:28;3.73;;;2.67;;
7899;SDS011;3995;50.856;4.404;2024-02-14T00:19:55;4.20;;;2.40;;
7899;SDS011;3995;50.856;4.404;2024-02-14T00:22:23;3.40;;;2.10;;
7899;SDS011;3995;50.856;4.404;2024-02-14T00:24:50;5.03;;;2.47;;
7899;SDS011;3995;50.856;4.404;2024-02-14T00:27:17;5.07;;;2.43;;
7899;SDS011;3995;50.856;4.404;2024-02-14T00:29:46;2.77;;;2.20;;
7899;SDS011;3995;50.856;4.404;2024-02-14T00:32:13;5.00;;;2.47;;
7899;SDS011;3995;50.856;4.404;2024-02-14T00:34:40;3.70;;;2.50;;
7899;SDS011;3995;50.856;4.404;2024-02-14T00:37:08;3.40;;;2.50;;
7899;SDS011;3995;50.856;4.404;2024-02-14T00:39:36;5.03;;;2.83;;
7899;SDS011;3995;50.856;4.404;2024-02-14T00:42:03;4.20;;;2.57;;
7899;SDS011;3995;50.856;4.404;2024-02-14T00:44:30;3.90;;;2.30;;
7899;SDS011;3995;50.856;4.404;2024-02-14T00:46:59;3.03;;;2.27;;
7899;SDS011;3995;50.856;4.404;2024-02-14T00:49:27;8.27;;;2.93;;
7899;SDS011;3995;50.856;4.404;2024-02-14T00:51:54;4.03;;;2.47;;
7899;SDS011;3995;50.856;4.404;2024-02-14T00:54:23;4.00;;;2.20;;
7899;SDS011;3995;50.856;4.404;2024-02-14T00:56:51;4.60;;;2.50;;
7899;SDS011;3995;50.856;4.404;2024-02-14T00:59:19;3.00;;;1.90;;
7899;SDS011;3995;50.856;4.404;2024-02-14T01:01:46;2.47;;;2.27;;
7899;SDS011;3995;50.856;4.404;2024-02-14T01:04:15;3.70;;;2.20;;
7899;SDS011;3995;50.856;4.404;2024-02-14T01:06:43;6.10;;;2.87;;
7899;SDS011;3995;50.856;4.404;2024-02-14T01:09:10;4.20;;;2.53;;
7899;SDS011;3995;50.856;4.404;2024-02-14T01:11:37;3.57;;;2.43;;
7899;SDS011;3995;50.856;4.404;2024-02-14T01:14:04;5.40;;;2.70;;
7899;SDS011;3995;50.856;4.404;2024-02-14T01:16:31;4.60;;;2.87;;
7899;SDS011;3995;50.856;4.404;2024-02-14T01:18:58;3.37;;;2.70;;
7899;SDS011;3995;50.856;4.404;2024-02-14T01:21:27;4.20;;;2.37;;
7899;SDS011;3995;50.856;4.404;2024-02-14T01:23:54;3.30;;;2.60;;
7899;SDS011;3995;50.856;4.404;2024-02-14T01:26:21;3.93;;;2.97;;
7899;SDS011;3995;50.856;4.404;2024-02-14T01:28:48;5.90;;;2.70;;
7899;SDS011;3995;50.856;4.404;2024-02-14T01:31:15;3.77;;;2.83;;
7899;SDS011;3995;50.856;4.404;2024-02-14T01:33:42;3.63;;;2.60;;
7899;SDS011;3995;50.856;4.404;2024-02-14T01:36:10;3.97;;;2.70;;
7899;SDS011;3995;50.856;4.404;2024-02-14T01:38:39;6.40;;;3.33;;
7899;SDS011;3995;50.856;4.404;2024-02-14T01:41:08;5.87;;;2.87;;
7899;SDS011;3995;50.856;4.404;2024-02-14T01:43:35;3.87;;;2.83;;
7899;SDS011;3995;50.856;4.404;2024-02-14T01:46:04;5.20;;;3.03;;
7899;SDS011;3995;50.856;4.404;2024-02-14T01:48:32;4.73;;;2.80;;
7899;SDS011;3995;50.856;4.404;2024-02-14T01:51:01;4.50;;;3.60;;
7899;SDS011;3995;50.856;4.404;2024-02-14T01:53:29;3.93;;;2.83;;
7899;SDS011;3995;50.856;4.404;2024-02-14T01:55:59;4.47;;;3.00;;
7899;SDS011;3995;50.856;4.404;2024-02-14T01:58:26;7.63;;;3.53;;
7899;SDS011;3995;50.856;4.404;2024-02-14T02:00:54;8.03;;;3.70;;
7899;SDS011;3995;50.856;4.404;2024-02-14T02:03:23;3.67;;;3.00;;
7899;SDS011;3995;50.856;4.404;2024-02-14T02:05:51;3.87;;;3.10;;
7899;SDS011;3995;50.856;4.404;2024-02-14T02:08:19;5.63;;;3.50;;
7899;SDS011;3995;50.856;4.404;2024-02-14T02:10:46;4.10;;;2.90;;
7899;SDS011;3995;50.856;4.404;2024-02-14T02:13:15;4.70;;;3.33;;
7899;SDS011;3995;50.856;4.404;2024-02-14T02:15:42;4.27;;;3.53;;
7899;SDS011;3995;50.856;4.404;2024-02-14T02:18:10;5.60;;;3.60;;
7899;SDS011;3995;50.856;4.404;2024-02-14T02:20:38;4.70;;;3.00;;
7899;SDS011;3995;50.856;4.404;2024-02-14T02:23:09;5.10;;;3.30;;
7899;SDS011;3995;50.856;4.404;2024-02-14T02:25:40;5.20;;;3.47;;
7899;SDS011;3995;50.856;4.404;2024-02-14T02:28:07;6.47;;;3.33;;
7899;SDS011;3995;50.856;4.404;2024-02-14T02:30:35;3.70;;;3.20;;
7899;SDS011;3995;50.856;4.404;2024-02-14T02:33:02;6.50;;;3.47;;
7899;SDS011;3995;50.856;4.404;2024-02-14T02:35:30;5.60;;;3.70;;
7899;SDS011;3995;50.856;4.404;2024-02-14T02:37:57;5.27;;;3.40;;
7899;SDS011;3995;50.856;4.404;2024-02-14T02:40:26;7.83;;;3.47;;
7899;SDS011;3995;50.856;4.404;2024-02-14T02:42:53;4.30;;;2.70;;
7899;SDS011;3995;50.856;4.404;2024-02-14T02:45:20;9.10;;;3.80;;
7899;SDS011;3995;50.856;4.404;2024-02-14T02:47:48;5.80;;;2.87;;
7899;SDS011;3995;50.856;4.404;2024-02-14T02:50:16;5.00;;;3.13;;
7899;SDS011;3995;50.856;4.404;2024-02-14T02:52:44;6.90;;;3.90;;
7899;SDS011;3995;50.856;4.404;2024-02-14T02:55:12;5.13;;;3.60;;
7899;SDS011;3995;50.856;4.404;2024-02-14T02:57:41;4.03;;;3.10;;
7899;SDS011;3995;50.856;4.404;2024-02-14T03:00:10;6.93;;;3.70;;
7899;SDS011;3995;50.856;4.404;2024-02-14T03:02:39;7.30;;;3.97;;
7899;SDS011;3995;50.856;4.404;2024-02-14T03:05:09;8.10;;;3.63;;
7899;SDS011;3995;50.856;4.404;2024-02-14T03:07:42;5.87;;;3.77;;
7899;SDS011;3995;50.856;4.404;2024-02-14T03:10:10;5.87;;;3.70;;
7899;SDS011;3995;50.856;4.404;2024-02-14T03:12:37;4.83;;;3.80;;
7899;SDS011;3995;50.856;4.404;2024-02-14T03:15:06;6.63;;;4.30;;
7899;SDS011;3995;50.856;4.404;2024-02-14T03:17:35;4.67;;;3.70;;
7899;SDS011;3995;50.856;4.404;2024-02-14T03:20:02;7.40;;;3.93;;
7899;SDS011;3995;50.856;4.404;2024-02-14T03:22:35;6.60;;;4.50;;
7899;SDS011;3995;50.856;4.404;2024-02-14T03:25:03;7.33;;;4.47;;
7899;SDS011;3995;50.856;4.404;2024-02-14T03:27:30;5.20;;;3.63;;
7899;SDS011;3995;50.856;4.404;2024-02-14T03:29:57;6.87;;;3.93;;
7899;SDS011;3995;50.856;4.404;2024-02-14T03:32:29;5.33;;;3.87;;
7899;SDS011;3995;50.856;4.404;2024-02-14T03:34:56;8.57;;;4.73;;
7899;SDS011;3995;50.856;4.404;2024-02-14T03:37:23;5.40;;;4.20;;
7899;SDS011;3995;50.856;4.404;2024-02-14T03:39:50;6.80;;;4.03;;
7899;SDS011;3995;50.856;4.404;2024-02-14T03:42:17;6.67;;;4.13;;
7899;SDS011;3995;50.856;4.404;2024-02-14T03:44:45;7.93;;;4.60;;
7899;SDS011;3995;50.856;4.404;2024-02-14T03:47:12;7.30;;;4.20;;
7899;SDS011;3995;50.856;4.404;2024-02-14T03:49:41;6.80;;;4.80;;
7899;SDS011;3995;50.856;4.404;2024-02-14T03:52:08;8.43;;;4.80;;
7899;SDS011;3995;50.856;4.404;2024-02-14T03:54:36;7.43;;;4.40;;
7899;SDS011;3995;50.856;4.404;2024-02-14T03:57:04;5.77;;;3.97;;
7899;SDS011;3995;50.856;4.404;2024-02-14T03:59:35;5.80;;;4.10;;
7899;SDS011;3995;50.856;4.404;2024-02-14T04:02:04;6.43;;;4.30;;
7899;SDS011;3995;50.856;4.404;2024-02-14T04:04:34;6.23;;;4.53;;
7899;SDS011;3995;50.856;4.404;2024-02-14T04:07:04;5.27;;;3.77;;
7899;SDS011;3995;50.856;4.404;2024-02-14T04:09:32;7.50;;;4.20;;
7899;SDS011;3995;50.856;4.404;2024-02-14T04:11:59;8.00;;;4.10;;
7899;SDS011;3995;50.856;4.404;2024-02-14T04:14:26;6.53;;;3.93;;
7899;SDS011;3995;50.856;4.404;2024-02-14T04:16:53;8.97;;;4.77;;
7899;SDS011;3995;50.856;4.404;2024-02-14T04:19:21;6.37;;;3.80;;
7899;SDS011;3995;50.856;4.404;2024-02-14T04:21:48;7.60;;;4.80;;
7899;SDS011;3995;50.856;4.404;2024-02-14T04:24:16;6.23;;;4.30;;
7899;SDS011;3995;50.856;4.404;2024-02-14T04:26:43;8.77;;;5.10;;
7899;SDS011;3995;50.856;4.404;2024-02-14T04:29:11;6.97;;;5.07;;
7899;SDS011;3995;50.856;4.404;2024-02-14T04:31:38;7.00;;;4.40;;
7899;SDS011;3995;50.856;4.404;2024-02-14T04:34:05;8.03;;;5.30;;
7899;SDS011;3995;50.856;4.404;2024-02-14T04:36:33;8.53;;;5.17;;
7899;SDS011;3995;50.856;4.404;2024-02-14T04:39:01;7.47;;;5.03;;
7899;SDS011;3995;50.856;4.404;2024-02-14T04:41:30;7.20;;;5.10;;
7899;SDS011;3995;50.856;4.404;2024-02-14T04:44:02;9.30;;;4.40;;
7899;SDS011;3995;50.856;4.404;2024-02-14T04:46:31;7.43;;;5.00;;
7899;SDS011;3995;50.856;4.404;2024-02-14T04:48:59;7.70;;;5.00;;
7899;SDS011;3995;50.856;4.404;2024-02-14T04:51:28;7.47;;;4.50;;
7899;SDS011;3995;50.856;4.404;2024-02-14T04:53:56;5.60;;;4.40;;
7899;SDS011;3995;50.856;4.404;2024-02-14T04:56:24;9.47;;;5.33;;
7899;SDS011;3995;50.856;4.404;2024-02-14T04:58:52;6.93;;;4.73;;
7899;SDS011;3995;50.856;4.404;2024-02-14T05:01:20;9.90;;;4.80;;
7899;SDS011;3995;50.856;4.404;2024-02-14T05:03:47;7.80;;;4.57;;
7899;SDS011;3995;50.856;4.404;2024-02-14T05:06:15;6.03;;;4.10;;
7899;SDS011;3995;50.856;4.404;2024-02-14T05:08:42;6.57;;;4.43;;
7899;SDS011;3995;50.856;4.404;2024-02-14T05:11:10;5.40;;;3.93;;
7899;SDS011;3995;50.856;4.404;2024-02-14T05:13:37;6.80;;;4.23;;
7899;SDS011;3995;50.856;4.404;2024-02-14T05:16:08;6.70;;;4.53;;
7899;SDS011;3995;50.856;4.404;2024-02-14T05:18:36;7.10;;;4.87;;
7899;SDS011;3995;50.856;4.404;2024-02-14T05:21:05;6.90;;;4.83;;
7899;SDS011;3995;50.856;4.404;2024-02-14T05:23:33;5.67;;;4.33;;
7899;SDS011;3995;50.856;4.404;2024-02-14T05:26:00;8.30;;;4.37;;
7899;SDS011;3995;50.856;4.404;2024-02-14T05:28:28;7.20;;;4.70;;
7899;SDS011;3995;50.856;4.404;2024-02-14T05:30:55;6.10;;;4.50;;
7899;SDS011;3995;50.856;4.404;2024-02-14T05:33:25;5.80;;;4.30;;
7899;SDS011;3995;50.856;4.404;2024-02-14T05:35:52;7.30;;;4.60;;
7899;SDS011;3995;50.856;4.404;2024-02-14T05:38:19;7.05;;;4.10;;
7899;SDS011;3995;50.856;4.404;2024-02-14T05:40:47;6.90;;;4.30;;
7899;SDS011;3995;50.856;4.404;2024-02-14T05:43:14;4.60;;;4.03;;
7899;SDS011;3995;50.856;4.404;2024-02-14T05:45:43;7.47;;;4.83;;
7899;SDS011;3995;50.856;4.404;2024-02-14T05:48:11;9.33;;;4.90;;
7899;SDS011;3995;50.856;4.404;2024-02-14T05:50:39;7.00;;;4.47;;
7899;SDS011;3995;50.856;4.404;2024-02-14T05:53:06;6.03;;;4.50;;
7899;SDS011;3995;50.856;4.404;2024-02-14T05:55:34;8.67;;;5.23;;
7899;SDS011;3995;50.856;4.404;2024-02-14T05:58:01;8.60;;;4.80;;
7899;SDS011;3995;50.856;4.404;2024-02-14T06:00:28;8.37;;;4.77;;
7899;SDS011;3995;50.856;4.404;2024-02-14T06:02:55;8.50;;;4.87;;
7899;SDS011;3995;50.856;4.404;2024-02-14T06:05:22;7.10;;;5.33;;
7899;SDS011;3995;50.856;4.404;2024-02-14T06:07:51;7.97;;;5.53;;
7899;SDS011;3995;50.856;4.404;2024-02-14T06:10:18;8.83;;;5.40;;
7899;SDS011;3995;50.856;4.404;2024-02-14T06:12:45;8.10;;;5.07;;
7899;SDS011;3995;50.856;4.404;2024-02-14T06:15:13;7.73;;;4.60;;
7899;SDS011;3995;50.856;4.404;2024-02-14T06:17:40;7.00;;;5.23;;
7899;SDS011;3995;50.856;4.404;2024-02-14T06:20:07;9.33;;;5.30;;
7899;SDS011;3995;50.856;4.404;2024-02-14T06:22:35;11.23;;;5.83;;
7899;SDS011;3995;50.856;4.404;2024-02-14T06:25:04;10.20;;;6.00;;
7899;SDS011;3995;50.856;4.404;2024-02-14T06:27:32;8.10;;;4.73;;
7899;SDS011;3995;50.856;4.404;2024-02-14T06:29:59;6.47;;;4.77;;
7899;SDS011;3995;50.856;4.404;2024-02-14T06:32:26;8.23;;;5.33;;
7899;SDS011;3995;50.856;4.404;2024-02-14T06:34:53;7.47;;;5.20;;
7899;SDS011;3995;50.856;4.404;2024-02-14T06:37:20;11.80;;;4.97;;
7899;SDS011;3995;50.856;4.404;2024-02-14T06:39:47;8.50;;;5.00;;
7899;SDS011;3995;50.856;4.404;2024-02-14T06:42:16;6.50;;;4.73;;
7899;SDS011;3995;50.856;4.404;2024-02-14T06:44:44;8.47;;;5.10;;
7899;SDS011;3995;50.856;4.404;2024-02-14T06:47:12;8.30;;;5.10;;
7899;SDS011;3995;50.856;4.404;2024-02-14T06:49:39;11.23;;;5.03;;
7899;SDS011;3995;50.856;4.404;2024-02-14T06:52:06;10.87;;;4.90;;
7899;SDS011;3995;50.856;4.404;2024-02-14T06:54:34;8.93;;;5.27;;
7899;SDS011;3995;50.856;4.404;2024-02-14T06:57:01;14.07;;;6.20;;
7899;SDS011;3995;50.856;4.404;2024-02-14T06:59:29;9.50;;;5.30;;
7899;SDS011;3995;50.856;4.404;2024-02-14T07:01:56;10.83;;;5.20;;
7899;SDS011;3995;50.856;4.404;2024-02-14T07:04:24;10.27;;;5.60;;
7899;SDS011;3995;50.856;4.404;2024-02-14T07:06:52;7.60;;;5.20;;
7899;SDS011;3995;50.856;4.404;2024-02-14T07:09:19;11.77;;;6.53;;
7899;SDS011;3995;50.856;4.404;2024-02-14T07:11:47;7.33;;;5.17;;
7899;SDS011;3995;50.856;4.404;2024-02-14T07:14:14;9.97;;;5.40;;
7899;SDS011;3995;50.856;4.404;2024-02-14T07:16:43;9.53;;;5.13;;
7899;SDS011;3995;50.856;4.404;2024-02-14T07:19:10;11.47;;;5.57;;
7899;SDS011;3995;50.856;4.404;2024-02-14T07:21:37;8.77;;;6.13;;
7899;SDS011;3995;50.856;4.404;2024-02-14T07:24:05;7.50;;;5.17;;
7899;SDS011;3995;50.856;4.404;2024-02-14T07:26:32;11.47;;;5.43;;
7899;SDS011;3995;50.856;4.404;2024-02-14T07:28:59;8.57;;;4.87;;
7899;SDS011;3995;50.856;4.404;2024-02-14T07:31:28;10.70;;;5.67;;
7899;SDS011;3995;50.856;4.404;2024-02-14T07:34:00;9.30;;;5.33;;
7899;SDS011;3995;50.856;4.404;2024-02-14T07:36:28;7.63;;;5.43;;
7899;SDS011;3995;50.856;4.404;2024-02-14T07:38:55;12.60;;;5.20;;
7899;SDS011;3995;50.856;4.404;2024-02-14T07:41:23;9.83;;;5.60;;
7899;SDS011;3995;50.856;4.404;2024-02-14T07:43:50;13.07;;;6.50;;
7899;SDS011;3995;50.856;4.404;2024-02-14T07:46:18;11.13;;;6.97;;
7899;SDS011;3995;50.856;4.404;2024-02-14T07:48:45;6.50;;;4.83;;
7899;SDS011;3995;50.856;4.404;2024-02-14T07:51:15;16.93;;;5.90;;
7899;SDS011;3995;50.856;4.404;2024-02-14T07:53:44;10.33;;;5.97;;
7899;SDS011;3995;50.856;4.404;2024-02-14T07:56:11;8.47;;;5.73;;
7899;SDS011;3995;50.856;4.404;2024-02-14T07:58:38;10.70;;;5.00;;
7899;SDS011;3995;50.856;4.404;2024-02-14T08:01:06;7.87;;;5.53;;
7899;SDS011;3995;50.856;4.404;2024-02-14T08:03:33;12.07;;;6.30;;
7899;SDS011;3995;50.856;4.404;2024-02-14T08:06:01;6.17;;;4.93;;
7899;SDS011;3995;50.856;4.404;2024-02-14T08:08:29;7.87;;;5.87;;
7899;SDS011;3995;50.856;4.404;2024-02-14T08:10:57;12.60;;;5.17;;
7899;SDS011;3995;50.856;4.404;2024-02-14T08:13:24;6.73;;;5.07;;
7899;SDS011;3995;50.856;4.404;2024-02-14T08:15:51;7.53;;;5.63;;
7899;SDS011;3995;50.856;4.404;2024-02-14T08:18:19;8.80;;;5.37;;
7899;SDS011;3995;50.856;4.404;2024-02-14T08:20:46;10.87;;;5.70;;
7899;SDS011;3995;50.856;4.404;2024-02-14T08:23:13;8.57;;;5.50;;
7899;SDS011;3995;50.856;4.404;2024-02-14T08:25:42;12.53;;;5.47;;
7899;SDS011;3995;50.856;4.404;2024-02-14T08:28:09;6.77;;;4.57;;
7899;SDS011;3995;50.856;4.404;2024-02-14T08:30:37;8.63;;;5.10;;
7899;SDS011;3995;50.856;4.404;2024-02-14T08:33:04;7.63;;;5.40;;
7899;SDS011;3995;50.856;4.404;2024-02-14T08:35:32;7.27;;;5.70;;
7899;SDS011;3995;50.856;4.404;2024-02-14T08:37:59;9.43;;;5.43;;
7899;SDS011;3995;50.856;4.404;2024-02-14T08:40:26;8.93;;;5.17;;
7899;SDS011;3995;50.856;4.404;2024-02-14T08:42:55;12.03;;;5.80;;
7899;SDS011;3995;50.856;4.404;2024-02-14T08:45:22;10.57;;;5.60;;
7899;SDS011;3995;50.856;4.404;2024-02-14T08:47:50;10.47;;;5.00;;
7899;SDS011;3995;50.856;4.404;2024-02-14T08:50:17;10.80;;;5.47;;
7899;SDS011;3995;50.856;4.404;2024-02-14T08:52:45;9.63;;;5.70;;
7899;SDS011;3995;50.856;4.404;2024-02-14T08:55:12;13.43;;;5.97;;
7899;SDS011;3995;50.856;4.404;2024-02-14T08:57:42;7.47;;;4.60;;
7899;SDS011;3995;50.856;4.404;2024-02-14T09:00:12;14.30;;;5.50;;
7899;SDS011;3995;50.856;4.404;2024-02-14T09:02:44;11.30;;;5.97;;
7899;SDS011;3995;50.856;4.404;2024-02-14T09:05:13;7.43;;;5.47;;
7899;SDS011;3995;50.856;4.404;2024-02-14T09:07:42;8.03;;;5.53;;
7899;SDS011;3995;50.856;4.404;2024-02-14T09:10:09;11.47;;;5.50;;
7899;SDS011;3995;50.856;4.404;2024-02-14T09:12:37;11.97;;;5.93;;
7899;SDS011;3995;50.856;4.404;2024-02-14T09:15:06;10.77;;;5.93;;
7899;SDS011;3995;50.856;4.404;2024-02-14T09:17:36;9.83;;;5.87;;
7899;SDS011;3995;50.856;4.404;2024-02-14T09:20:04;8.17;;;5.80;;
7899;SDS011;3995;50.856;4.404;2024-02-14T09:22:34;9.80;;;5.83;;
7899;SDS011;3995;50.856;4.404;2024-02-14T09:25:02;6.90;;;5.00;;
7899;SDS011;3995;50.856;4.404;2024-02-14T09:27:30;7.47;;;5.47;;
7899;SDS011;3995;50.856;4.404;2024-02-14T09:29:58;8.53;;;5.30;;
7899;SDS011;3995;50.856;4.404;2024-02-14T09:32:25;6.20;;;5.50;;
7899;SDS011;3995;50.856;4.404;2024-02-14T09:34:53;7.40;;;5.23;;
7899;SDS011;3995;50.856;4.404;2024-02-14T09:37:22;7.10;;;4.83;;
7899;SDS011;3995;50.856;4.404;2024-02-14T09:39:49;10.00;;;6.50;;
7899;SDS011;3995;50.856;4.404;2024-02-14T09:42:16;6.80;;;5.13;;
7899;SDS011;3995;50.856;4.404;2024-02-14T09:44:50;7.70;;;5.30;;
7899;SDS011;3995;50.856;4.404;2024-02-14T09:47:24;6.17;;;5.57;;
7899;SDS011;3995;50.856;4.404;2024-02-14T09:49:54;7.33;;;4.80;;
7899;SDS011;3995;50.856;4.404;2024-02-14T09:52:23;8.10;;;4.67;;
7899;SDS011;3995;50.856;4.404;2024-02-14T09:54:51;5.37;;;4.30;;
7899;SDS011;3995;50.856;4.404;2024-02-14T09:57:19;6.80;;;4.07;;
7899;SDS011;3995;50.856;4.404;2024-02-14T09:59:48;8.23;;;5.23;;
7899;SDS011;3995;50.856;4.404;2024-02-14T10:02:17;6.43;;;4.03;;
7899;SDS011;3995;50.856;4.404;2024-02-14T10:04:44;4.77;;;4.10;;
7899;SDS011;3995;50.856;4.404;2024-02-14T10:07:13;5.10;;;3.90;;
7899;SDS011;3995;50.856;4.404;2024-02-14T10:09:40;6.23;;;4.60;;
7899;SDS011;3995;50.856;4.404;2024-02-14T10:12:08;5.00;;;3.77;;
7899;SDS011;3995;50.856;4.404;2024-02-14T10:14:35;8.10;;;3.93;;
7899;SDS011;3995;50.856;4.404;2024-02-14T10:17:03;4.23;;;3.37;;
7899;SDS011;3995;50.856;4.404;2024-02-14T10:19:31;5.93;;;4.20;;
7899;SDS011;3995;50.856;4.404;2024-02-14T10:21:58;4.73;;;3.67;;
7899;SDS011;3995;50.856;4.404;2024-02-14T10:24:29;6.17;;;3.97;;
7899;SDS011;3995;50.856;4.404;2024-02-14T10:26:58;4.70;;;3.27;;
7899;SDS011;3995;50.856;4.404;2024-02-14T10:29:25;5.63;;;3.80;;
7899;SDS011;3995;50.856;4.404;2024-02-14T10:31:53;4.03;;;3.27;;
7899;SDS011;3995;50.856;4.404;2024-02-14T10:34:24;4.30;;;3.00;;
7899;SDS011;3995;50.856;4.404;2024-02-14T10:36:52;4.40;;;3.30;;
7899;SDS011;3995;50.856;4.404;2024-02-14T10:39:22;4.33;;;3.03;;
7899;SDS011;3995;50.856;4.404;2024-02-14T10:41:54;5.40;;;3.30;;
7899;SDS011;3995;50.856;4.404;2024-02-14T10:44:21;3.73;;;2.80;;
7899;SDS011;3995;50.856;4.404;2024-02-14T10:46:48;3.90;;;3.03;;
7899;SDS011;3995;50.856;4.404;2024-02-14T10:49:19;4.20;;;2.80;;
7899;SDS011;3995;50.856;4.404;2024-02-14T10:51:47;3.90;;;2.70;;
7899;SDS011;3995;50.856;4.404;2024-02-14T10:54:16;2.90;;;2.40;;
7899;SDS011;3995;50.856;4.404;2024-02-14T10:56:45;5.47;;;2.20;;
7899;SDS011;3995;50.856;4.404;2024-02-14T10:59:19;3.33;;;2.50;;
7899;SDS011;3995;50.856;4.404;2024-02-14T11:01:48;3.03;;;2.30;;
7899;SDS011;3995;50.856;4.404;2024-02-14T11:04:16;2.93;;;2.30;;
7899;SDS011;3995;50.856;4.404;2024-02-14T11:06:45;4.73;;;2.57;;
7899;SDS011;3995;50.856;4.404;2024-02-14T11:09:13;4.93;;;2.67;;
7899;SDS011;3995;50.856;4.404;2024-02-14T11:11:41;2.93;;;2.40;;
7899;SDS011;3995;50.856;4.404;2024-02-14T11:14:09;6.00;;;3.10;;
7899;SDS011;3995;50.856;4.404;2024-02-14T11:16:39;3.00;;;2.43;;
7899;SDS011;3995;50.856;4.404;2024-02-14T11:19:08;3.13;;;2.40;;
7899;SDS011;3995;50.856;4.404;2024-02-14T11:21:36;3.37;;;2.80;;
7899;SDS011;3995;50.856;4.404;2024-02-14T11:24:04;2.43;;;2.03;;
7899;SDS011;3995;50.856;4.404;2024-02-14T11:29:17;5.13;;;2.80;;
7899;SDS011;3995;50.856;4.404;2024-02-14T11:31:46;3.20;;;2.67;;
7899;SDS011;3995;50.856;4.404;2024-02-14T11:34:15;3.27;;;2.37;;
7899;SDS011;3995;50.856;4.404;2024-02-14T11:36:43;3.53;;;2.60;;
7899;SDS011;3995;50.856;4.404;2024-02-14T11:39:11;4.20;;;3.27;;
7899;SDS011;3995;50.856;4.404;2024-02-14T11:41:39;6.07;;;3.23;;
7899;SDS011;3995;50.856;4.404;2024-02-14T11:44:07;4.07;;;3.20;;
7899;SDS011;3995;50.856;4.404;2024-02-14T11:46:37;3.60;;;2.50;;
7899;SDS011;3995;50.856;4.404;2024-02-14T11:49:06;5.00;;;3.40;;
7899;SDS011;3995;50.856;4.404;2024-02-14T11:51:34;4.90;;;3.30;;
7899;SDS011;3995;50.856;4.404;2024-02-14T11:54:01;5.80;;;3.50;;
7899;SDS011;3995;50.856;4.404;2024-02-14T11:56:32;7.17;;;3.40;;
7899;SDS011;3995;50.856;4.404;2024-02-14T11:58:59;6.00;;;3.63;;
7899;SDS011;3995;50.856;4.404;2024-02-14T12:01:28;8.90;;;3.67;;
7899;SDS011;3995;50.856;4.404;2024-02-14T12:03:57;5.47;;;3.60;;
7899;SDS011;3995;50.856;4.404;2024-02-14T12:06:27;4.70;;;3.20;;
7899;SDS011;3995;50.856;4.404;2024-02-14T12:08:56;5.03;;;3.30;;
7899;SDS011;3995;50.856;4.404;2024-02-14T12:11:26;6.80;;;3.50;;
7899;SDS011;3995;50.856;4.404;2024-02-14T12:13:54;4.70;;;2.97;;
7899;SDS011;3995;50.856;4.404;2024-02-14T12:16:21;7.10;;;3.70;;
7899;SDS011;3995;50.856;4.404;2024-02-14T12:18:49;5.07;;;3.20;;
7899;SDS011;3995;50.856;4.404;2024-02-14T12:21:34;4.63;;;3.20;;
7899;SDS011;3995;50.856;4.404;2024-02-14T12:24:02;7.60;;;3.70;;
7899;SDS011;3995;50.856;4.404;2024-02-14T12:26:30;4.20;;;3.43;;
7899;SDS011;3995;50.856;4.404;2024-02-14T12:29:00;5.87;;;3.80;;
7899;SDS011;3995;50.856;4.404;2024-02-14T12:31:29;6.13;;;4.10;;
7899;SDS011;3995;50.856;4.404;2024-02-14T12:33:57;5.47;;;3.57;;
7899;SDS011;3995;50.856;4.404;2024-02-14T12:36:27;6.63;;;4.43;;
7899;SDS011;3995;50.856;4.404;2024-02-14T12:38:55;7.57;;;3.60;;
7899;SDS011;3995;50.856;4.404;2024-02-14T12:41:23;7.53;;;3.80;;
7899;SDS011;3995;50.856;4.404;2024-02-14T12:43:51;5.00;;;3.37;;
7899;SDS011;3995;50.856;4.404;2024-02-14T12:46:18;10.63;;;4.17;;
7899;SDS011;3995;50.856;4.404;2024-02-14T12:48:45;7.77;;;3.37;;
7899;SDS011;3995;50.856;4.404;2024-02-14T12:51:13;6.57;;;3.57;;
7899;SDS011;3995;50.856;4.404;2024-02-14T12:53:40;6.10;;;3.00;;
7899;SDS011;3995;50.856;4.404;2024-02-14T12:56:08;10.70;;;4.00;;
7899;SDS011;3995;50.856;4.404;2024-02-14T12:58:36;4.50;;;3.27;;
7899;SDS011;3995;50.856;4.404;2024-02-14T13:01:03;6.27;;;3.63;;
7899;SDS011;3995;50.856;4.404;2024-02-14T13:03:31;4.83;;;3.37;;
7899;SDS011;3995;50.856;4.404;2024-02-14T13:06:00;5.03;;;3.40;;
7899;SDS011;3995;50.856;4.404;2024-02-14T13:08:28;6.10;;;3.17;;
7899;SDS011;3995;50.856;4.404;2024-02-14T13:10:55;4.70;;;2.90;;
7899;SDS011;3995;50.856;4.404;2024-02-14T13:13:25;6.07;;;3.30;;
7899;SDS011;3995;50.856;4.404;2024-02-14T13:15:54;6.57;;;2.97;;
7899;SDS011;3995;50.856;4.404;2024-02-14T13:18:21;5.13;;;3.53;;
7899;SDS011;3995;50.856;4.404;2024-02-14T13:20:50;5.43;;;3.10;;
7899;SDS011;3995;50.856;4.404;2024-02-14T13:23:22;4.30;;;2.80;;
7899;SDS011;3995;50.856;4.404;2024-02-14T13:25:50;4.63;;;2.60;;
7899;SDS011;3995;50.856;4.404;2024-02-14T13:28:17;5.30;;;3.37;;
7899;SDS011;3995;50.856;4.404;2024-02-14T13:30:46;4.77;;;3.00;;
7899;SDS011;3995;50.856;4.404;2024-02-14T13:33:13;5.70;;;3.20;;
7899;SDS011;3995;50.856;4.404;2024-02-14T13:35:41;4.53;;;2.70;;
7899;SDS011;3995;50.856;4.404;2024-02-14T13:38:08;7.93;;;3.40;;
7899;SDS011;3995;50.856;4.404;2024-02-14T13:40:35;3.70;;;2.30;;
7899;SDS011;3995;50.856;4.404;2024-02-14T13:43:03;6.20;;;3.43;;
7899;SDS011;3995;50.856;4.404;2024-02-14T13:45:39;10.23;;;2.57;;
7899;SDS011;3995;50.856;4.404;2024-02-14T13:48:10;4.53;;;2.90;;
7899;SDS011;3995;50.856;4.404;2024-02-14T13:50:37;6.43;;;3.00;;
7899;SDS011;3995;50.856;4.404;2024-02-14T13:53:05;5.43;;;2.90;;
7899;SDS011;3995;50.856;4.404;2024-02-14T13:55:33;4.37;;;2.43;;
7899;SDS011;3995;50.856;4.404;2024-02-14T13:58:00;4.67;;;3.00;;
7899;SDS011;3995;50.856;4.404;2024-02-14T14:00:27;4.30;;;2.70;;
7899;SDS011;3995;50.856;4.404;2024-02-14T14:02:54;5.57;;;2.70;;
7899;SDS011;3995;50.856;4.404;2024-02-14T14:05:23;5.30;;;2.57;;
7899;SDS011;3995;50.856;4.404;2024-02-14T14:07:51;4.83;;;2.43;;
7899;SDS011;3995;50.856;4.404;2024-02-14T14:10:18;2.93;;;2.30;;
7899;SDS011;3995;50.856;4.404;2024-02-14T14:12:45;3.63;;;2.40;;
7899;SDS011;3995;50.856;4.404;2024-02-14T14:15:13;4.03;;;2.40;;
7899;SDS011;3995;50.856;4.404;2024-02-14T14:17:41;4.57;;;2.57;;
7899;SDS011;3995;50.856;4.404;2024-02-14T14:20:09;5.20;;;2.60;;
7899;SDS011;3995;50.856;4.404;2024-02-14T14:22:38;6.53;;;2.50;;
7899;SDS011;3995;50.856;4.404;2024-02-14T14:25:06;3.90;;;2.40;;
7899;SDS011;3995;50.856;4.404;2024-02-14T14:27:33;4.60;;;2.37;;
7899;SDS011;3995;50.856;4.404;2024-02-14T14:30:01;5.10;;;2.77;;
7899;SDS011;3995;50.856;4.404;2024-02-14T14:32:29;2.53;;;2.10;;
7899;SDS011;3995;50.856;4.404;2024-02-14T14:34:56;3.63;;;2.10;;
7899;SDS011;3995;50.856;4.404;2024-02-14T14:37:24;4.23;;;2.50;;
7899;SDS011;3995;50.856;4.404;2024-02-14T14:39:52;5.13;;;2.83;;
7899;SDS011;3995;50.856;4.404;2024-02-14T14:42:21;4.87;;;2.43;;
7899;SDS011;3995;50.856;4.404;2024-02-14T14:44:49;4.10;;;2.50;;
7899;SDS011;3995;50.856;4.404;2024-02-14T14:47:16;3.63;;;2.00;;
7899;SDS011;3995;50.856;4.404;2024-02-14T14:49:43;3.27;;;2.40;;
7899;SDS011;3995;50.856;4.404;2024-02-14T14:52:10;3.80;;;2.30;;
7899;SDS011;3995;50.856;4.404;2024-02-14T14:54:38;5.40;;;2.40;;
7899;SDS011;3995;50.856;4.404;2024-02-14T14:57:06;3.93;;;2.17;;
7899;SDS011;3995;50.856;4.404;2024-02-14T14:59:39;3.80;;;2.17;;
7899;SDS011;3995;50.856;4.404;2024-02-14T15:02:06;3.57;;;2.80;;
7899;SDS011;3995;50.856;4.404;2024-02-14T15:04:33;3.20;;;2.07;;
7899;SDS011;3995;50.856;4.404;2024-02-14T15:07:01;6.23;;;2.57;;
7899;SDS011;3995;50.856;4.404;2024-02-14T15:09:29;4.63;;;2.17;;
7899;SDS011;3995;50.856;4.404;2024-02-14T15:11:56;3.13;;;1.90;;
7899;SDS011;3995;50.856;4.404;2024-02-14T15:14:25;3.17;;;2.10;;
7899;SDS011;3995;50.856;4.404;2024-02-14T15:16:52;7.93;;;2.37;;
7899;SDS011;3995;50.856;4.404;2024-02-14T15:19:20;5.07;;;2.50;;
7899;SDS011;3995;50.856;4.404;2024-02-14T15:21:49;4.10;;;2.33;;